createdAt,value
2023-02-18T00:02:32.930Z,98545.16
2023-02-18T00:07:36.611Z,98545.20
2023-02-18T00:12:42.506Z,98539.42
2023-02-18T00:17:44.140Z,98543.70
2023-02-18T00:22:45.764Z,98537.21
2023-02-18T00:27:47.465Z,98549.52
2023-02-18T00:32:49.555Z,98567.83
2023-02-18T00:37:53.155Z,98590.19
2023-02-18T00:42:54.839Z,98629.34
2023-02-18T00:47:56.739Z,98649.85
2023-02-18T00:52:58.403Z,98662.80
2023-02-18T00:58:00.104Z,98665.96
2023-02-18T01:03:01.927Z,98667.05
2023-02-18T01:08:05.073Z,98672.09
2023-02-18T01:13:06.760Z,98667.23
2023-02-18T01:18:09.632Z,98671.30
2023-02-18T01:23:12.276Z,98662.23
2023-02-18T01:28:15.030Z,98665.13
2023-02-18T01:33:16.695Z,98663.11
2023-02-18T01:38:18.387Z,98668.90
2023-02-18T01:43:21.081Z,98669.02
2023-02-18T01:48:47.840Z,98679.50
2023-02-18T01:53:56.674Z,98688.74
2023-02-18T01:59:01.568Z,98688.40
2023-02-18T02:04:03.674Z,98687.74
2023-02-18T02:09:10.648Z,98680.95
2023-02-18T02:14:27.740Z,98676.04
2023-02-18T02:19:42.418Z,98670.27
2023-02-18T02:24:59.492Z,98669.47
2023-02-18T02:30:27.571Z,98673.41
2023-02-18T02:35:48.755Z,98684.98
2023-02-18T02:41:19.198Z,98686.20
2023-02-18T02:46:31.512Z,98685.96
2023-02-18T02:51:47.138Z,98689.88
2023-02-18T02:56:49.489Z,98694.05
2023-02-18T03:02:02.986Z,98693.30
2023-02-18T03:07:26.167Z,98697.70
2023-02-18T03:12:46.636Z,98706.18
2023-02-18T03:17:58.357Z,98704.83
2023-02-18T03:23:04.456Z,98709.70
2023-02-18T03:28:12.558Z,98720.94
2023-02-18T03:33:20.708Z,98719.77
2023-02-18T03:38:35.362Z,98732.73
2023-02-18T03:43:37.072Z,98732.89
2023-02-18T03:48:38.782Z,98728.39
2023-02-18T03:53:40.685Z,98735.59
2023-02-18T03:58:42.321Z,98729.11
2023-02-18T04:03:44.044Z,98739.17
2023-02-18T04:08:45.900Z,98741.64
2023-02-18T04:13:47.555Z,98747.39
2023-02-18T04:18:49.187Z,98764.46
2023-02-18T04:23:50.861Z,98770.05
2023-02-18T04:28:52.494Z,98770.73
2023-02-18T04:33:54.192Z,98767.33
2023-02-18T04:38:55.888Z,98761.02
2023-02-18T04:43:59.642Z,98771.34
2023-02-18T04:49:01.311Z,98777.68
2023-02-18T04:54:03.939Z,98787.60
2023-02-18T04:59:05.764Z,98790.79
2023-02-18T05:04:07.495Z,98794.48
2023-02-18T05:09:10.201Z,98794.35
2023-02-18T05:14:11.909Z,98800.56
2023-02-18T05:19:16.971Z,98806.77
2023-02-18T05:24:18.665Z,98797.79
2023-02-18T05:29:20.321Z,98796.48
2023-02-18T05:34:22.044Z,98801.75
2023-02-18T05:39:23.817Z,98801.86
2023-02-18T05:44:31.378Z,98810.27
2023-02-18T05:49:35.173Z,98815.73
2023-02-18T05:54:37.702Z,98817.46
2023-02-18T05:59:39.411Z,98815.33
2023-02-18T06:04:41.502Z,98820.94
2023-02-18T06:09:43.195Z,98810.42
2023-02-18T06:14:45.210Z,98821.28
2023-02-18T06:19:47.005Z,98819.73
2023-02-18T06:24:48.640Z,98817.92
2023-02-18T06:29:50.364Z,98817.90
2023-02-18T06:34:52.012Z,98822.38
2023-02-18T06:39:53.707Z,98819.23
2023-02-18T06:44:55.316Z,98819.60
2023-02-18T06:49:57.051Z,98829.98
2023-02-18T06:54:58.975Z,98824.65
2023-02-18T07:00:01.889Z,98829.98
2023-02-18T07:05:03.864Z,98843.11
2023-02-18T07:10:06.757Z,98839.19
2023-02-18T07:15:09.061Z,98843.83
2023-02-18T07:20:10.922Z,98845.34
2023-02-18T07:25:13.096Z,98842.38
2023-02-18T07:30:15.379Z,98849.56
2023-02-18T07:35:17.502Z,98851.23
2023-02-18T07:40:22.992Z,98839.11
2023-02-18T07:45:25.111Z,98841.55
2023-02-18T07:50:26.989Z,98857.59
2023-02-18T07:55:58.649Z,98848.23
2023-02-18T08:01:00.823Z,98856.39
2023-02-18T08:06:04.557Z,98854.70
2023-02-18T08:11:18.550Z,98852.64
2023-02-18T08:16:21.894Z,98851.98
2023-02-18T08:21:25.532Z,98856.76
2023-02-18T08:26:27.666Z,98852.34
2023-02-18T08:31:30.829Z,98843.65
2023-02-18T08:36:32.575Z,98847.42
2023-02-18T08:41:34.344Z,98848.50
2023-02-18T08:46:36.548Z,98843.14
2023-02-18T08:51:38.920Z,98847.63
2023-02-18T08:56:40.763Z,98850.40
2023-02-18T09:01:42.664Z,98846.90
2023-02-18T09:06:44.393Z,98845.08
2023-02-18T09:11:46.397Z,98847.50
2023-02-18T09:16:48.065Z,98846.33
2023-02-18T09:21:50.311Z,98850.31
2023-02-18T09:26:52.015Z,98849.87
2023-02-18T09:31:53.885Z,98860.58
2023-02-18T09:36:55.656Z,98858.46
2023-02-18T09:42:17.685Z,98843.70
2023-02-18T09:47:30.890Z,98837.56
2023-02-18T09:52:38.645Z,98824.29
2023-02-18T09:57:45.116Z,98837.81
2023-02-18T10:02:59.150Z,98842.73
2023-02-18T10:08:07.846Z,98835.16
2023-02-18T10:13:15.621Z,98837.04
2023-02-18T10:23:42.376Z,98844.76
2023-02-18T10:28:45.381Z,98845.86
2023-02-18T10:33:55.476Z,98842.74
2023-02-18T10:39:23.306Z,98845.48
2023-02-18T10:44:43.999Z,98836.56
2023-02-18T10:49:51.658Z,98830.75
2023-02-18T10:55:04.578Z,98824.88
2023-02-18T11:00:24.122Z,98822.22
2023-02-18T11:05:28.051Z,98826.73
2023-02-18T11:10:34.125Z,98811.63
2023-02-18T11:15:36.753Z,98792.11
2023-02-18T11:20:39.487Z,98781.22
2023-02-18T11:25:52.580Z,98769.66
2023-02-18T11:30:58.365Z,98751.66
2023-02-18T11:36:13.345Z,98732.59
2023-02-18T11:41:18.969Z,98715.46
2023-02-18T11:46:24.664Z,98711.84
2023-02-18T11:51:38.915Z,98706.08
2023-02-18T11:56:40.690Z,98700.67
2023-02-18T12:01:57.427Z,98684.20
2023-02-18T12:07:05.500Z,98671.16
2023-02-18T12:12:16.487Z,98660.93
2023-02-18T12:17:33.479Z,98644.20
2023-02-18T12:22:56.739Z,98630.02
2023-02-18T12:28:21.460Z,98623.06
2023-02-18T12:34:01.977Z,98603.48
2023-02-18T12:39:11.393Z,98581.02
2023-02-18T12:44:38.183Z,98567.43
2023-02-18T12:50:12.863Z,98543.82
2023-02-18T12:55:52.068Z,98530.61
2023-02-18T13:00:56.542Z,98538.92
2023-02-18T13:06:17.472Z,98497.06
2023-02-18T13:11:39.660Z,98488.83
2023-02-18T13:16:44.857Z,98498.01
2023-02-18T13:21:49.909Z,98486.93
2023-02-18T13:26:58.695Z,98443.86
2023-02-18T13:32:33.449Z,98446.54
2023-02-18T13:37:43.792Z,98433.41
2023-02-18T13:42:45.662Z,98419.42
2023-02-18T13:47:49.882Z,98409.20
2023-02-18T13:52:52.654Z,98407.48
2023-02-18T13:57:55.739Z,98398.25
2023-02-18T14:03:00.391Z,98392.98
2023-02-18T14:08:34.590Z,98378.86
2023-02-18T14:13:40.834Z,98363.57
2023-02-18T14:18:42.661Z,98346.80
2023-02-18T14:23:59.613Z,98337.65
2023-02-18T14:29:06.813Z,98317.55
2023-02-18T14:34:14.690Z,98295.70
2023-02-18T14:39:37.146Z,98282.93
2023-02-18T14:44:52.845Z,98271.38
2023-02-18T14:49:59.848Z,98259.49
2023-02-18T14:55:04.022Z,98242.98
2023-02-18T15:00:07.130Z,98223.56
2023-02-18T15:05:16.495Z,98211.12
2023-02-18T15:10:19.611Z,98206.01
2023-02-18T15:15:26.465Z,98195.13
2023-02-18T15:20:42.081Z,98184.92
2023-02-18T15:25:50.340Z,98175.92
2023-02-18T15:30:52.605Z,98161.84
2023-02-18T15:36:06.384Z,98143.00
2023-02-18T15:41:11.946Z,98136.88
2023-02-18T15:46:14.561Z,98128.89
2023-02-18T15:51:22.498Z,98121.92
2023-02-18T15:56:34.066Z,98122.62
2023-02-18T16:01:36.348Z,98118.88
2023-02-18T16:06:46.156Z,98113.44
2023-02-18T16:11:52.120Z,98113.95
2023-02-18T16:16:59.657Z,98105.45
2023-02-18T16:22:18.574Z,98108.50
2023-02-18T16:27:20.580Z,98112.08
2023-02-18T16:32:22.570Z,98122.64
2023-02-18T16:37:39.520Z,98125.20
2023-02-18T16:42:41.174Z,98132.86
2023-02-18T16:47:47.324Z,98138.83
2023-02-18T16:52:50.634Z,98139.16
2023-02-18T16:57:52.822Z,98141.70
2023-02-18T17:02:58.292Z,98153.13
2023-02-18T17:08:14.437Z,98158.75
2023-02-18T17:13:21.745Z,98159.77
2023-02-18T17:18:24.403Z,98175.11
2023-02-18T17:23:26.284Z,98179.36
2023-02-18T17:28:27.994Z,98179.20
2023-02-18T17:33:29.652Z,98172.56
2023-02-18T17:38:34.519Z,98161.14
2023-02-18T17:43:37.389Z,98177.34
2023-02-18T17:48:40.259Z,98193.55
2023-02-18T17:53:41.907Z,98200.00
2023-02-18T17:58:43.973Z,98205.63
2023-02-18T18:03:45.690Z,98215.02
2023-02-18T18:08:48.263Z,98208.19
2023-02-18T18:13:50.543Z,98226.77
2023-02-18T18:18:52.624Z,98217.73
2023-02-18T18:23:54.285Z,98223.04
2023-02-18T18:28:56.021Z,98219.27
2023-02-18T18:33:57.678Z,98229.15
2023-02-18T18:38:59.279Z,98233.60
2023-02-18T18:44:01.123Z,98244.34
2023-02-18T18:49:02.775Z,98241.95
2023-02-18T18:54:04.628Z,98260.36
2023-02-18T18:59:08.472Z,98263.27
2023-02-18T19:04:10.002Z,98265.33
2023-02-18T19:09:11.781Z,98274.52
2023-02-18T19:14:14.193Z,98285.96
2023-02-18T19:19:16.189Z,98297.20
2023-02-18T19:24:17.805Z,98295.67
2023-02-18T19:29:23.252Z,98296.19
2023-02-18T19:34:24.980Z,98289.02
2023-02-18T19:39:26.825Z,98297.21
2023-02-18T19:44:33.749Z,98301.98
2023-02-18T19:49:35.459Z,98301.82
2023-02-18T19:54:37.134Z,98304.55
2023-02-18T19:59:39.713Z,98306.94
2023-02-18T20:04:42.174Z,98303.69
2023-02-18T20:09:44.497Z,98318.88
2023-02-18T20:14:46.409Z,98324.00
2023-02-18T20:19:48.357Z,98326.73
2023-02-18T20:24:50.394Z,98326.89
2023-02-18T20:29:52.172Z,98336.10
2023-02-18T20:34:53.848Z,98349.08
2023-02-18T20:39:55.520Z,98349.92
2023-02-18T20:44:57.341Z,98357.10
2023-02-18T20:49:59.147Z,98367.85
2023-02-18T20:55:01.000Z,98391.73
2023-02-18T21:00:04.386Z,98405.55
2023-02-18T21:05:06.349Z,98415.77
2023-02-18T21:10:08.355Z,98432.11
2023-02-18T21:15:10.201Z,98461.52
2023-02-18T21:20:11.874Z,98478.00
2023-02-18T21:25:13.571Z,98490.43
2023-02-18T21:30:15.329Z,98504.91
2023-02-18T21:35:17.667Z,98491.05
2023-02-18T21:40:19.553Z,98503.27
2023-02-18T21:45:21.511Z,98515.69
2023-02-18T21:50:23.437Z,98519.66
2023-02-18T21:55:26.227Z,98527.08
2023-02-18T22:00:28.036Z,98534.86
2023-02-18T22:05:30.953Z,98535.52
2023-02-18T22:10:33.567Z,98546.68
2023-02-18T22:15:38.478Z,98550.71
2023-02-18T22:20:40.915Z,98565.47
2023-02-18T22:25:42.607Z,98571.90
2023-02-18T22:30:44.314Z,98575.79
2023-02-18T22:35:45.999Z,98570.66
2023-02-18T22:40:50.447Z,98581.69
2023-02-18T22:45:52.410Z,98581.83
2023-02-18T22:50:54.278Z,98583.67
2023-02-18T22:56:00.733Z,98588.23
2023-02-18T23:01:03.571Z,98592.27
2023-02-18T23:06:06.092Z,98602.44
2023-02-18T23:11:12.182Z,98606.86
2023-02-18T23:16:15.860Z,98612.92
2023-02-18T23:21:17.576Z,98618.48
2023-02-18T23:26:21.566Z,98628.29
2023-02-18T23:31:25.911Z,98631.70
2023-02-18T23:36:29.951Z,98626.41
2023-02-18T23:41:32.074Z,98626.17
2023-02-18T23:46:34.906Z,98617.56
2023-02-18T23:51:36.653Z,98625.60
2023-02-18T23:56:38.991Z,98630.64
